createdAt,value
2018-09-22T00:01:57.838Z,1002.3
2018-09-22T00:12:00.732Z,1002.3
2018-09-22T00:22:02.122Z,1002.4
2018-09-22T00:32:03.925Z,1002.5
2018-09-22T00:42:05.989Z,1002.7
2018-09-22T00:52:07.897Z,1002.8
2018-09-22T01:02:10.255Z,1002.8
2018-09-22T01:12:12.118Z,1003.1
2018-09-22T01:22:14.197Z,1003.3
2018-09-22T01:32:16.042Z,1003.5
2018-09-22T01:42:17.682Z,1003.5
2018-09-22T01:52:19.551Z,1003.6
2018-09-22T02:02:21.186Z,1003.8
2018-09-22T02:12:23.278Z,1003.9
2018-09-22T02:22:25.112Z,1004
2018-09-22T02:32:27.245Z,1004.1
2018-09-22T02:42:29.042Z,1004.1
2018-09-22T02:52:30.961Z,1004.3
2018-09-22T03:02:32.580Z,1004.3
2018-09-22T03:12:34.384Z,1004.4
2018-09-22T03:22:36.029Z,1004.5
2018-09-22T03:32:38.223Z,1004.7
2018-09-22T03:42:40.113Z,1004.8
2018-09-22T03:52:42.189Z,1004.9
2018-09-22T04:02:44.349Z,1004.9
2018-09-22T04:12:45.143Z,1005
2018-09-22T04:22:46.853Z,1005
2018-09-22T04:32:48.632Z,1005.1
2018-09-22T04:42:50.533Z,1005.2
2018-09-22T04:52:52.346Z,1005.2
2018-09-22T05:02:54.341Z,1005.5
2018-09-22T05:12:56.439Z,1005.5
2018-09-22T05:22:57.961Z,1005.7
2018-09-22T05:32:59.639Z,1005.7
2018-09-22T05:43:01.266Z,1005.8
2018-09-22T05:53:03.058Z,1005.9
2018-09-22T06:03:04.844Z,1006
2018-09-22T06:13:06.975Z,1006.2
2018-09-22T06:23:09.084Z,1006.1
2018-09-22T06:33:10.922Z,1006.1
2018-09-22T06:43:13.153Z,1006.2
2018-09-22T06:53:15.122Z,1006.4
2018-09-22T07:03:16.697Z,1006.3
2018-09-22T07:13:18.389Z,1006.4
2018-09-22T07:23:20.227Z,1006.3
2018-09-22T07:33:21.852Z,1006.5
2018-09-22T07:43:24.043Z,1006.6
2018-09-22T07:53:25.857Z,1006.7
2018-09-22T08:03:27.510Z,1006.7
2018-09-22T08:13:30.707Z,1006.8
2018-09-22T08:23:32.950Z,1006.8
2018-09-22T08:33:34.524Z,1006.9
2018-09-22T08:43:36.601Z,1006.9
2018-09-22T08:53:38.453Z,1006.8
2018-09-22T09:03:40.367Z,1006.9
2018-09-22T09:13:42.356Z,1007.1
2018-09-22T09:23:44.016Z,1006.9
2018-09-22T09:33:46.543Z,1006.7
2018-09-22T09:43:48.723Z,1006.8
2018-09-22T09:53:50.519Z,1006.6
2018-09-22T10:03:52.183Z,1006.5
2018-09-22T10:13:53.987Z,1006.4
2018-09-22T10:23:55.399Z,1006.3
2018-09-22T10:33:57.264Z,1006.2
2018-09-22T10:43:59.002Z,1006.3
2018-09-22T10:54:00.975Z,1006.3
2018-09-22T11:04:03.312Z,1006.4
2018-09-22T11:14:04.781Z,1006.5
2018-09-22T11:24:24.973Z,1006.2
2018-09-22T11:34:26.764Z,1006.1
2018-09-22T11:44:28.684Z,1006.2
2018-09-22T11:54:30.167Z,1006
2018-09-22T12:04:31.867Z,1006
2018-09-22T12:14:33.481Z,1005.7
2018-09-22T12:24:36.396Z,1005.9
2018-09-22T12:34:38.418Z,1006
2018-09-22T12:44:40.118Z,1005.9
2018-09-22T12:54:41.645Z,1005.6
2018-09-22T13:04:43.621Z,1005.8
2018-09-22T13:14:45.552Z,1005.6
2018-09-22T13:24:47.287Z,1005.6
2018-09-22T13:34:49.420Z,1005.4
2018-09-22T13:44:51.090Z,1005.2
2018-09-22T13:54:52.770Z,1005.3
2018-09-22T14:04:54.548Z,1005.3
2018-09-22T14:14:56.078Z,1005.3
2018-09-22T14:24:58.028Z,1005.2
2018-09-22T14:34:59.983Z,1005.3
2018-09-22T14:45:01.821Z,1005.2
2018-09-22T14:55:03.455Z,1005.3
2018-09-22T15:05:05.305Z,1005.2
2018-09-22T15:15:07.113Z,1005.1
2018-09-22T15:25:09.677Z,1005.2
2018-09-22T15:35:11.336Z,1005.1
2018-09-22T15:45:13.323Z,1005
2018-09-22T15:55:15.217Z,1004.9
2018-09-22T16:05:17.638Z,1005.3
2018-09-22T16:15:19.408Z,1006
2018-09-22T16:25:21.306Z,1005.8
2018-09-22T16:35:23.357Z,1005.7
2018-09-22T16:45:25.459Z,1005.8
2018-09-22T16:55:27.468Z,1005.7
2018-09-22T17:05:29.510Z,1005.8
2018-09-22T17:15:31.187Z,1005.7
2018-09-22T17:25:33.402Z,1005.7
2018-09-22T17:35:35.099Z,1005.7
2018-09-22T17:45:36.935Z,1005.9
2018-09-22T17:55:38.753Z,1005.8
2018-09-22T18:05:41.182Z,1005.9
2018-09-22T18:15:43.303Z,1006
2018-09-22T18:25:45.560Z,1006
2018-09-22T18:35:47.650Z,1006
2018-09-22T18:45:49.594Z,1005.8
2018-09-22T18:55:51.394Z,1006.1
2018-09-22T19:05:53.201Z,1006.1
2018-09-22T19:15:55.406Z,1006.1
2018-09-22T19:25:57.728Z,1006.1
2018-09-22T19:35:59.510Z,1006.2
2018-09-22T19:46:01.364Z,1006.2
2018-09-22T19:56:03.329Z,1006.1
2018-09-22T20:06:05.107Z,1006
2018-09-22T20:16:06.760Z,1006
2018-09-22T20:26:08.796Z,1005.8
2018-09-22T20:36:10.397Z,1005.9
2018-09-22T20:46:12.461Z,1005.9
2018-09-22T20:56:14.380Z,1005.7
2018-09-22T21:06:16.190Z,1005.7
2018-09-22T21:16:18.162Z,1005.5
2018-09-22T21:26:19.648Z,1005.5
2018-09-22T21:36:21.597Z,1005.5
2018-09-22T21:46:23.324Z,1005.3
2018-09-22T21:56:24.722Z,1005.4
2018-09-22T22:06:26.548Z,1005.4
2018-09-22T22:16:28.216Z,1005.2
2018-09-22T22:26:30.495Z,1005.1
2018-09-22T22:36:32.551Z,1005.1
2018-09-22T22:46:34.849Z,1005.2
2018-09-22T22:56:36.273Z,1005.1
2018-09-22T23:06:38.185Z,1004.9
2018-09-22T23:16:40.407Z,1004.8
2018-09-22T23:26:41.729Z,1004.8
2018-09-22T23:36:43.591Z,1004.7
2018-09-22T23:46:45.785Z,1004.7
2018-09-22T23:56:47.736Z,1004.6
